Time,TemperatureF,DewpointF,PressureIn,WindDirection,WindDirectionDegrees,WindSpeedMPH,WindSpeedGustMPH,Humidity,HourlyPrecipIn,Conditions,Clouds,dailyrainin,SoftwareType,DateUTC
2013-06-30 00:03:00,63.1,63.1,29.65,SW,230,0.6,2.5,100,0.00,,,0.00,WSDL version 420,2013-06-30 04:03:00,
2013-06-30 00:08:00,63.1,63.1,29.65,SW,230,0.9,2.2,100,0.00,,,0.00,WSDL version 420,2013-06-30 04:08:00,
2013-06-30 00:13:00,63.1,63.1,29.65,SW,230,0.0,2.0,100,0.00,,,0.00,WSDL version 420,2013-06-30 04:13:00,
2013-06-30 00:18:00,63.1,63.1,29.65,SW,230,0.0,0.0,100,0.00,,,0.00,WSDL version 420,2013-06-30 04:18:00,
2013-06-30 00:23:00,63.1,63.1,29.65,WSW,252,0.0,0.9,100,0.00,,,0.00,WSDL version 420,2013-06-30 04:23:00,
2013-06-30 00:28:00,63.1,63.1,29.65,SSW,207,0.0,0.9,100,0.00,,,0.00,WSDL version 420,2013-06-30 04:28:00,
2013-06-30 00:33:00,63.1,63.1,29.65,SW,230,0.4,2.5,100,0.00,,,0.00,WSDL version 420,2013-06-30 04:33:00,
2013-06-30 00:38:00,63.1,63.1,29.65,SW,230,0.8,2.5,100,0.00,,,0.00,WSDL version 420,2013-06-30 04:38:00,
2013-06-30 00:43:00,63.0,63.0,29.65,SW,230,0.0,2.0,100,0.00,,,0.00,WSDL version 420,2013-06-30 04:43:00,
2013-06-30 00:48:00,63.0,63.0,29.65,SSW,207,0.0,0.9,100,0.00,,,0.00,WSDL version 420,2013-06-30 04:48:00,
2013-06-30 00:53:00,63.0,63.0,29.65,South,185,0.0,0.0,100,-99.99,,,-99.99,WSDL version 420,2013-06-30 04:53:00,
2013-06-30 00:58:00,62.8,62.8,29.65,South,185,0.9,1.1,100,0.00,,,0.00,WSDL version 420,2013-06-30 04:58:00,
2013-06-30 01:03:00,62.8,62.8,29.65,South,185,0.0,1.1,100,0.00,,,0.00,WSDL version 420,2013-06-30 05:03:00,
2013-06-30 01:08:00,62.8,62.8,29.65,East,95,1.6,1.6,100,0.00,,,0.00,WSDL version 420,2013-06-30 05:08:00,
2013-06-30 01:13:00,62.8,62.8,29.65,North,0,0.0,1.3,100,0.00,,,0.00,WSDL version 420,2013-06-30 05:13:00,
2013-06-30 01:18:00,62.8,62.8,29.65,East,95,1.6,1.6,100,0.00,,,0.00,WSDL version 420,2013-06-30 05:18:00,
2013-06-30 01:23:00,62.8,62.8,29.65,North,-999,-999.0,-999.0,100,0.00,,,0.00,WSDL version 420,2013-06-30 05:23:00,
2013-06-30 01:28:00,62.8,62.8,29.65,North,-999,-999.0,-999.0,100,0.00,,,0.00,WSDL version 420,2013-06-30 05:28:00,
2013-06-30 01:33:00,62.8,62.8,29.65,North,-999,-999.0,-999.0,100,0.00,,,0.00,WSDL version 420,2013-06-30 05:33:00,
2013-06-30 01:38:00,63.0,63.0,29.65,North,-999,-999.0,-999.0,100,0.00,,,0.00,WSDL version 420,2013-06-30 05:38:00,
2013-06-30 01:43:00,63.0,63.0,29.65,North,-999,-999.0,-999.0,100,0.00,,,0.00,WSDL version 420,2013-06-30 05:43:00,
2013-06-30 01:48:00,63.0,63.0,29.68,North,-999,-999.0,-999.0,100,0.00,,,0.00,WSDL version 420,2013-06-30 05:48:00,
2013-06-30 01:53:00,63.0,63.0,29.68,North,-999,-999.0,-999.0,100,0.00,,,0.00,WSDL version 420,2013-06-30 05:53:00,
2013-06-30 01:58:00,62.8,62.8,29.68,North,-999,-999.0,-999.0,100,0.00,,,0.00,WSDL version 420,2013-06-30 05:58:00,
2013-06-30 02:03:00,62.8,62.8,29.65,North,-999,-999.0,-999.0,100,0.00,,,0.00,WSDL version 420,2013-06-30 06:03:00,
2013-06-30 02:08:00,62.8,62.8,29.65,North,-999,-999.0,-999.0,100,0.00,,,0.00,WSDL version 420,2013-06-30 06:08:00,
2013-06-30 02:13:00,62.8,62.8,29.65,North,-999,-999.0,-999.0,100,0.00,,,0.00,WSDL version 420,2013-06-30 06:13:00,
2013-06-30 02:18:00,62.8,62.8,29.65,North,-999,-999.0,-999.0,100,0.00,,,0.00,WSDL version 420,2013-06-30 06:18:00,
2013-06-30 02:23:00,62.8,62.8,29.65,North,-999,-999.0,-999.0,100,0.00,,,0.00,WSDL version 420,2013-06-30 06:23:00,
2013-06-30 02:28:00,62.7,62.7,29.65,North,-999,-999.0,-999.0,100,0.00,,,0.00,WSDL version 420,2013-06-30 06:28:00,
2013-06-30 02:33:00,62.6,62.6,29.68,North,-999,-999.0,-999.0,100,0.00,,,0.00,WSDL version 420,2013-06-30 06:33:00,
2013-06-30 02:38:00,62.6,62.6,29.68,North,-999,-999.0,-999.0,100,0.00,,,0.00,WSDL version 420,2013-06-30 06:38:00,
2013-06-30 02:43:00,62.6,62.6,29.68,North,-999,-999.0,-999.0,100,0.00,,,0.00,WSDL version 420,2013-06-30 06:43:00,
2013-06-30 02:48:00,62.6,62.6,29.68,North,-999,-999.0,-999.0,100,0.00,,,0.00,WSDL version 420,2013-06-30 06:48:00,
2013-06-30 02:53:00,62.6,62.6,29.68,North,-999,-999.0,-999.0,100,0.00,,,0.00,WSDL version 420,2013-06-30 06:53:00,
2013-06-30 02:58:00,62.6,62.6,29.68,North,-999,-999.0,-999.0,100,0.00,,,0.00,WSDL version 420,2013-06-30 06:58:00,
2013-06-30 03:03:00,62.6,62.6,29.68,North,-999,-999.0,-999.0,100,0.00,,,0.00,WSDL version 420,2013-06-30 07:03:00,
2013-06-30 03:08:00,62.6,62.6,29.68,North,-999,-999.0,-999.0,100,0.00,,,0.00,WSDL version 420,2013-06-30 07:08:00,
2013-06-30 03:13:00,62.6,62.6,29.68,North,-999,-999.0,-999.0,100,0.00,,,0.00,WSDL version 420,2013-06-30 07:13:00,
2013-06-30 03:18:00,62.6,62.6,29.68,North,-999,-999.0,-999.0,100,0.00,,,0.00,WSDL version 420,2013-06-30 07:18:00,
2013-06-30 03:23:00,62.6,62.6,29.68,North,-999,-999.0,-999.0,100,0.00,,,0.00,WSDL version 420,2013-06-30 07:23:00,
2013-06-30 03:28:00,62.6,62.6,29.68,North,-999,-999.0,-999.0,100,0.00,,,0.00,WSDL version 420,2013-06-30 07:28:00,
2013-06-30 03:33:00,62.6,62.6,29.68,North,-999,-999.0,-999.0,100,0.00,,,0.00,WSDL version 420,2013-06-30 07:33:00,
2013-06-30 03:38:00,62.6,62.6,29.68,North,-999,-999.0,-999.0,100,0.00,,,0.00,WSDL version 420,2013-06-30 07:38:00,
2013-06-30 03:43:00,62.6,62.6,29.68,North,-999,-999.0,-999.0,100,0.00,,,0.00,WSDL version 420,2013-06-30 07:43:00,
2013-06-30 03:48:00,62.6,62.6,29.68,North,-999,-999.0,-999.0,100,0.00,,,0.00,WSDL version 420,2013-06-30 07:48:00,
2013-06-30 03:53:00,62.6,62.6,29.68,North,-999,-999.0,-999.0,100,0.00,,,0.00,WSDL version 420,2013-06-30 07:53:00,
2013-06-30 03:58:00,62.6,62.6,29.68,North,-999,-999.0,-999.0,100,0.00,,,0.00,WSDL version 420,2013-06-30 07:58:00,
2013-06-30 04:03:00,62.6,62.6,29.68,North,-999,-999.0,-999.0,100,0.00,,,0.00,WSDL version 420,2013-06-30 08:03:00,
2013-06-30 04:08:00,62.7,62.7,29.68,North,-999,-999.0,-999.0,100,0.00,,,0.00,WSDL version 420,2013-06-30 08:08:00,
2013-06-30 04:13:00,62.6,62.6,29.68,North,-999,-999.0,-999.0,100,0.00,,,0.00,WSDL version 420,2013-06-30 08:13:00,
2013-06-30 04:18:00,62.7,62.7,29.68,North,-999,-999.0,-999.0,100,0.00,,,0.00,WSDL version 420,2013-06-30 08:18:00,
2013-06-30 04:23:00,62.8,62.8,29.68,North,-999,-999.0,-999.0,100,0.00,,,0.00,WSDL version 420,2013-06-30 08:23:00,
2013-06-30 04:28:00,62.8,62.8,29.68,North,-999,-999.0,-999.0,100,0.00,,,0.00,WSDL version 420,2013-06-30 08:28:00,
2013-06-30 04:33:00,62.8,62.8,29.68,North,-999,-999.0,-999.0,100,0.00,,,0.00,WSDL version 420,2013-06-30 08:33:00,
2013-06-30 04:38:00,62.8,62.8,29.68,North,-999,-999.0,-999.0,100,0.00,,,0.00,WSDL version 420,2013-06-30 08:38:00,
2013-06-30 04:43:00,62.8,62.8,29.68,North,-999,-999.0,-999.0,100,0.00,,,0.00,WSDL version 420,2013-06-30 08:43:00,
2013-06-30 04:48:00,62.8,62.8,29.68,North,-999,-999.0,-999.0,100,0.00,,,0.00,WSDL version 420,2013-06-30 08:48:00,
2013-06-30 04:53:00,62.8,62.8,29.68,North,-999,-999.0,-999.0,100,0.00,,,0.00,WSDL version 420,2013-06-30 08:53:00,
2013-06-30 04:58:00,63.0,63.0,29.68,North,-999,-999.0,-999.0,100,0.00,,,0.00,WSDL version 420,2013-06-30 08:58:00,
2013-06-30 05:03:00,63.1,63.1,29.68,North,-999,-999.0,-999.0,100,0.00,,,0.00,WSDL version 420,2013-06-30 09:03:00,
2013-06-30 05:08:00,63.3,63.3,29.68,North,-999,-999.0,-999.0,100,0.00,,,0.00,WSDL version 420,2013-06-30 09:08:00,
2013-06-30 05:13:00,63.3,63.3,29.68,North,-999,-999.0,-999.0,100,0.00,,,0.00,WSDL version 420,2013-06-30 09:13:00,
2013-06-30 05:18:00,63.4,63.4,29.68,North,-999,-999.0,-999.0,100,0.00,,,0.00,WSDL version 420,2013-06-30 09:18:00,
2013-06-30 05:23:00,63.4,63.4,29.68,North,-999,-999.0,-999.0,100,0.00,,,0.00,WSDL version 420,2013-06-30 09:23:00,
2013-06-30 05:28:00,63.5,63.5,29.68,North,-999,-999.0,-999.0,100,0.00,,,0.00,WSDL version 420,2013-06-30 09:28:00,
2013-06-30 05:33:00,63.5,63.5,29.71,North,-999,-999.0,-999.0,100,0.00,,,0.00,WSDL version 420,2013-06-30 09:33:00,
2013-06-30 05:38:00,63.5,63.5,29.71,North,-999,-999.0,-999.0,100,0.00,,,0.00,WSDL version 420,2013-06-30 09:38:00,
2013-06-30 05:43:00,63.5,63.5,29.71,North,-999,-999.0,-999.0,100,0.00,,,0.00,WSDL version 420,2013-06-30 09:43:00,
2013-06-30 05:48:00,63.5,63.5,29.71,ENE,72,1.3,2.2,100,0.00,,,0.00,WSDL version 420,2013-06-30 09:48:00,
2013-06-30 05:53:00,63.5,63.5,29.71,ESE,117,1.1,3.1,100,0.00,,,0.00,WSDL version 420,2013-06-30 09:53:00,
2013-06-30 05:58:00,63.5,63.5,29.71,North,359,0.0,3.1,100,0.00,,,0.00,WSDL version 420,2013-06-30 09:58:00,
2013-06-30 06:03:00,63.4,63.4,29.74,WSW,252,1.3,2.5,100,0.00,,,0.00,WSDL version 420,2013-06-30 10:03:00,
2013-06-30 06:08:00,63.1,63.1,29.74,SSW,207,0.9,2.0,100,0.00,,,0.00,WSDL version 420,2013-06-30 10:08:00,
2013-06-30 06:13:00,63.1,63.1,29.74,ESE,117,1.1,1.6,100,0.00,,,0.00,WSDL version 420,2013-06-30 10:13:00,
2013-06-30 06:18:00,63.0,63.0,29.74,ESE,117,0.0,1.1,100,0.00,,,0.00,WSDL version 420,2013-06-30 10:18:00,
2013-06-30 06:23:00,63.0,63.0,29.74,WSW,252,0.0,1.6,100,0.00,,,0.00,WSDL version 420,2013-06-30 10:23:00,
2013-06-30 06:30:00,63.0,63.0,29.74,WSW,252,0.0,1.6,100,0.00,,,0.00,WSDL version 420,2013-06-30 10:30:00,
2013-06-30 06:35:00,63.0,63.0,29.74,WSW,252,0.0,0.0,100,0.00,,,0.00,WSDL version 420,2013-06-30 10:35:00,
2013-06-30 06:40:00,63.0,63.0,29.74,North,-999,-999.0,-999.0,100,0.00,,,0.00,WSDL version 420,2013-06-30 10:40:00,
2013-06-30 06:45:00,63.0,63.0,29.74,North,-999,-999.0,-999.0,100,0.00,,,0.00,WSDL version 420,2013-06-30 10:45:00,
2013-06-30 06:51:00,63.0,63.0,29.74,ENE,72,0.0,0.0,100,0.00,,,0.00,WSDL version 420,2013-06-30 10:51:00,
2013-06-30 06:56:00,63.1,63.1,29.74,ENE,72,0.0,0.0,100,0.00,,,0.00,WSDL version 420,2013-06-30 10:56:00,
2013-06-30 07:01:00,63.4,63.4,29.74,ENE,72,0.0,0.0,100,0.00,,,0.00,WSDL version 420,2013-06-30 11:01:00,
2013-06-30 07:06:00,63.8,63.8,29.74,ENE,72,0.0,0.0,100,0.00,,,0.00,WSDL version 420,2013-06-30 11:06:00,
2013-06-30 07:11:00,64.0,64.0,29.74,North,-999,-999.0,-999.0,100,0.00,,,0.00,WSDL version 420,2013-06-30 11:11:00,
2013-06-30 07:16:00,64.2,64.2,29.74,North,-999,-999.0,-999.0,100,0.00,,,0.00,WSDL version 420,2013-06-30 11:16:00,
2013-06-30 07:21:00,64.4,64.4,29.71,North,-999,-999.0,-999.0,100,0.00,,,0.00,WSDL version 420,2013-06-30 11:21:00,
2013-06-30 07:26:00,64.6,64.6,29.71,ENE,72,2.8,2.9,100,-99.99,,,-99.99,WSDL version 420,2013-06-30 11:26:00,
2013-06-30 07:31:00,64.8,64.8,29.71,ESE,106,3.9,7.2,100,0.00,,,0.00,WSDL version 420,2013-06-30 11:31:00,
2013-06-30 07:36:00,64.8,64.8,29.74,ENE,78,2.0,7.2,100,0.00,,,0.00,WSDL version 420,2013-06-30 11:36:00,
2013-06-30 07:41:00,65.1,65.1,29.74,East,95,4.3,5.8,100,0.00,,,0.00,WSDL version 420,2013-06-30 11:41:00,
2013-06-30 07:46:00,65.4,65.4,29.74,NE,50,2.9,4.3,100,0.00,,,0.00,WSDL version 420,2013-06-30 11:46:00,
2013-06-30 07:53:00,65.7,65.7,29.74,NE,46,0.4,3.6,100,0.00,,,0.00,WSDL version 420,2013-06-30 11:53:00,
2013-06-30 07:58:00,65.9,65.9,29.74,NNE,19,1.8,3.4,100,0.00,,,0.00,WSDL version 420,2013-06-30 11:58:00,
2013-06-30 08:03:00,66.3,66.3,29.77,ENE,66,3.0,5.4,100,-99.99,,,-99.99,WSDL version 420,2013-06-30 12:03:00,
2013-06-30 08:08:00,66.5,66.5,29.77,South,176,1.9,5.6,100,0.00,,,0.00,WSDL version 420,2013-06-30 12:08:00,
2013-06-30 08:13:00,66.7,66.6,29.77,ENE,72,2.8,7.2,100,0.00,,,0.00,WSDL version 420,2013-06-30 12:13:00,
2013-06-30 08:18:00,67.1,67.1,29.77,East,98,1.2,7.2,100,0.00,,,0.00,WSDL version 420,2013-06-30 12:18:00,
2013-06-30 08:23:00,67.1,67.1,29.77,WSW,252,1.6,4.9,100,0.00,,,0.00,WSDL version 420,2013-06-30 12:23:00,
2013-06-30 08:28:00,67.1,67.1,29.77,SE,134,4.5,7.4,100,0.00,,,0.00,WSDL version 420,2013-06-30 12:28:00,
2013-06-30 08:33:00,67.5,67.5,29.77,East,80,2.7,7.4,100,0.00,,,0.00,WSDL version 420,2013-06-30 12:33:00,
2013-06-30 08:38:00,67.8,67.7,29.77,NE,55,2.0,7.8,99,0.00,,,0.00,WSDL version 420,2013-06-30 12:38:00,
2013-06-30 08:43:00,68.0,67.3,29.77,East,81,3.7,7.8,97,0.00,,,0.00,WSDL version 420,2013-06-30 12:43:00,
2013-06-30 08:48:00,67.9,66.7,29.77,East,81,3.2,7.8,96,0.00,,,0.00,WSDL version 420,2013-06-30 12:48:00,
2013-06-30 08:53:00,67.6,66.2,29.77,ESE,106,2.6,6.0,96,-99.99,,,-99.99,WSDL version 420,2013-06-30 12:53:00,
2013-06-30 08:58:00,67.9,66.9,29.77,East,80,4.7,10.5,97,0.00,,,0.00,WSDL version 420,2013-06-30 12:58:00,
2013-06-30 09:03:00,68.4,66.8,29.77,NNE,30,1.9,10.5,94,0.00,,,0.00,WSDL version 420,2013-06-30 13:03:00,
2013-06-30 09:08:00,68.4,65.5,29.77,ESE,102,5.1,5.8,90,0.00,,,0.00,WSDL version 420,2013-06-30 13:08:00,
2013-06-30 09:13:00,68.6,65.8,29.77,North,10,2.0,6.5,91,0.00,,,0.00,WSDL version 420,2013-06-30 13:13:00,
2013-06-30 09:18:00,68.9,66.2,29.77,East,82,4.0,8.7,91,0.00,,,0.00,WSDL version 420,2013-06-30 13:18:00,
2013-06-30 09:23:00,68.9,65.8,29.77,ESE,102,2.7,8.7,90,0.00,,,0.00,WSDL version 420,2013-06-30 13:23:00,
2013-06-30 09:28:00,69.3,66.2,29.77,East,85,3.4,6.5,89,0.00,,,0.00,WSDL version 420,2013-06-30 13:28:00,
2013-06-30 09:33:00,69.3,65.5,29.77,SE,145,4.0,6.5,88,0.00,,,0.00,WSDL version 420,2013-06-30 13:33:00,
2013-06-30 09:38:00,69.5,65.8,29.77,SSW,207,2.5,6.5,88,0.00,,,0.00,WSDL version 420,2013-06-30 13:38:00,
2013-06-30 09:43:00,69.4,65.6,29.77,ENE,69,4.9,6.0,88,0.00,,,0.00,WSDL version 420,2013-06-30 13:43:00,
2013-06-30 09:48:00,69.4,65.2,29.77,SE,131,6.6,7.8,84,0.00,,,0.00,WSDL version 420,2013-06-30 13:48:00,
2013-06-30 09:53:00,69.6,64.0,29.77,ESE,106,4.4,12.1,83,0.00,,,0.00,WSDL version 420,2013-06-30 13:53:00,
2013-06-30 09:58:00,69.9,65.4,29.77,ESE,111,4.1,12.1,86,0.00,,,0.00,WSDL version 420,2013-06-30 13:58:00,
2013-06-30 10:03:00,70.0,65.1,29.77,East,95,4.9,7.4,84,0.00,,,0.00,WSDL version 420,2013-06-30 14:03:00,
2013-06-30 10:08:00,70.2,64.5,29.77,East,91,5.4,8.5,81,-99.99,,,-99.99,WSDL version 420,2013-06-30 14:08:00,
2013-06-30 10:13:00,70.3,65.2,29.77,East,91,3.8,8.5,84,0.00,,,0.00,WSDL version 420,2013-06-30 14:13:00,
2013-06-30 10:18:00,70.5,64.8,29.77,East,98,3.2,6.3,81,0.00,,,0.00,WSDL version 420,2013-06-30 14:18:00,
2013-06-30 10:23:00,70.5,64.8,29.77,East,95,4.9,6.0,81,0.00,,,0.00,WSDL version 420,2013-06-30 14:23:00,
2013-06-30 10:28:00,70.1,64.2,29.77,East,95,0.5,4.9,82,-99.99,,,-99.99,WSDL version 420,2013-06-30 14:28:00,
2013-06-30 10:33:00,70.1,64.4,29.80,East,95,4.1,8.5,82,0.00,,,0.00,WSDL version 420,2013-06-30 14:33:00,
2013-06-30 10:38:00,70.6,64.0,29.80,East,82,6.2,8.5,79,0.00,,,0.00,WSDL version 420,2013-06-30 14:38:00,
2013-06-30 10:43:00,71.4,64.0,29.80,NE,50,1.1,8.5,78,0.00,,,0.00,WSDL version 420,2013-06-30 14:43:00,
2013-06-30 10:48:00,71.5,63.5,29.80,East,82,5.4,8.5,75,0.00,,,0.00,WSDL version 420,2013-06-30 14:48:00,
2013-06-30 10:53:00,71.7,62.3,29.77,East,87,5.6,9.8,71,0.00,,,0.00,WSDL version 420,2013-06-30 14:53:00,
2013-06-30 10:58:00,71.3,61.3,29.77,ESE,120,3.2,9.8,71,0.00,,,0.00,WSDL version 420,2013-06-30 14:58:00,
2013-06-30 11:03:00,71.4,62.1,29.77,ESE,104,2.0,6.3,74,0.00,,,0.00,WSDL version 420,2013-06-30 15:03:00,
2013-06-30 11:08:00,71.8,62.2,29.77,East,83,3.8,8.7,72,0.00,,,0.00,WSDL version 420,2013-06-30 15:08:00,
2013-06-30 11:13:00,71.9,62.8,29.77,NNW,345,2.4,8.7,74,-99.99,,,-99.99,WSDL version 420,2013-06-30 15:13:00,
2013-06-30 11:18:00,71.7,61.6,29.77,SE,125,3.9,6.0,70,0.00,,,0.00,WSDL version 420,2013-06-30 15:18:00,
2013-06-30 11:23:00,71.8,62.0,29.77,North,356,2.6,6.0,72,0.00,,,0.00,WSDL version 420,2013-06-30 15:23:00,
2013-06-30 11:28:00,71.7,62.3,29.77,North,5,1.8,4.0,73,0.00,,,0.00,WSDL version 420,2013-06-30 15:28:00,
2013-06-30 11:33:00,71.7,62.2,29.77,NW,305,3.3,8.5,71,0.00,,,0.00,WSDL version 420,2013-06-30 15:33:00,
2013-06-30 11:38:00,71.7,61.9,29.80,NW,323,2.0,8.5,72,0.00,,,0.00,WSDL version 420,2013-06-30 15:38:00,
2013-06-30 11:43:00,71.5,61.8,29.80,WNW,294,3.1,4.7,72,0.00,,,0.00,WSDL version 420,2013-06-30 15:43:00,
2013-06-30 11:48:00,71.4,61.9,29.77,NE,50,0.8,4.7,72,0.00,,,0.00,WSDL version 420,2013-06-30 15:48:00,
2013-06-30 11:53:00,72.0,62.4,29.77,NE,52,3.4,4.9,72,0.00,,,0.00,WSDL version 420,2013-06-30 15:53:00,
2013-06-30 11:58:00,72.8,63.8,29.77,WNW,294,3.1,4.9,74,0.00,,,0.00,WSDL version 420,2013-06-30 15:58:00,
2013-06-30 12:03:00,73.5,63.5,29.80,North,5,3.4,5.6,68,0.00,,,0.00,WSDL version 420,2013-06-30 16:03:00,
2013-06-30 12:08:00,73.4,62.2,29.80,North,5,2.3,5.8,68,0.00,,,0.00,WSDL version 420,2013-06-30 16:08:00,
2013-06-30 12:13:00,73.3,62.4,29.80,NNE,20,3.0,5.8,69,0.00,,,0.00,WSDL version 420,2013-06-30 16:13:00,
2013-06-30 12:18:00,73.6,62.3,29.77,ESE,121,4.9,7.6,67,0.00,,,0.00,WSDL version 420,2013-06-30 16:18:00,
2013-06-30 12:23:00,74.0,62.5,29.77,WNW,291,0.7,7.6,67,0.00,,,0.00,WSDL version 420,2013-06-30 16:23:00,
2013-06-30 12:28:00,74.2,61.5,29.77,NE,55,3.7,6.0,64,0.00,,,0.00,WSDL version 420,2013-06-30 16:28:00,
2013-06-30 12:33:00,74.4,61.4,29.77,NW,326,1.9,6.0,66,0.00,,,0.00,WSDL version 420,2013-06-30 16:33:00,
2013-06-30 12:38:00,74.3,61.7,29.77,NW,313,2.7,5.8,64,0.00,,,0.00,WSDL version 420,2013-06-30 16:38:00,
2013-06-30 12:48:00,74.1,60.7,29.77,NNW,332,2.6,7.2,63,-99.99,,,-99.99,WSDL version 420,2013-06-30 16:48:00,
2013-06-30 12:53:00,74.0,60.6,29.77,WSW,257,3.9,8.7,63,0.00,,,0.00,WSDL version 420,2013-06-30 16:53:00,
2013-06-30 12:58:00,74.1,58.9,29.77,WSW,248,2.8,8.7,60,0.00,,,0.00,WSDL version 420,2013-06-30 16:58:00,
2013-06-30 13:03:00,74.1,59.8,29.77,SW,215,3.8,4.9,61,0.00,,,0.00,WSDL version 420,2013-06-30 17:03:00,
2013-06-30 13:08:00,73.9,59.8,29.77,NNW,342,0.8,4.9,62,0.00,,,0.00,WSDL version 420,2013-06-30 17:08:00,
2013-06-30 13:13:00,73.9,61.1,29.77,NE,38,2.1,4.0,64,0.00,,,0.00,WSDL version 420,2013-06-30 17:13:00,
2013-06-30 13:18:00,74.6,62.1,29.77,East,87,3.5,6.7,65,0.00,,,0.00,WSDL version 420,2013-06-30 17:18:00,
2013-06-30 13:23:00,75.2,61.7,29.77,South,170,2.2,6.7,63,0.00,,,0.00,WSDL version 420,2013-06-30 17:23:00,
2013-06-30 13:28:00,75.3,61.0,29.77,East,83,5.0,7.6,61,0.00,,,0.00,WSDL version 420,2013-06-30 17:28:00,
2013-06-30 13:33:00,74.4,60.6,29.77,SSE,152,3.4,7.6,62,0.00,,,0.00,WSDL version 420,2013-06-30 17:33:00,
2013-06-30 13:38:00,74.3,61.0,29.77,East,98,2.7,4.3,65,0.00,,,0.00,WSDL version 420,2013-06-30 17:38:00,
2013-06-30 13:43:00,74.4,61.4,29.77,ENE,72,4.0,6.5,64,0.00,,,0.00,WSDL version 420,2013-06-30 17:43:00,
2013-06-30 13:48:00,75.1,62.1,29.80,ENE,68,3.7,6.5,63,0.00,,,0.00,WSDL version 420,2013-06-30 17:48:00,
2013-06-30 13:53:00,75.3,61.0,29.80,ENE,78,4.7,8.1,61,0.00,,,0.00,WSDL version 420,2013-06-30 17:53:00,
2013-06-30 13:58:00,75.0,61.3,29.80,ENE,75,1.8,8.1,63,0.00,,,0.00,WSDL version 420,2013-06-30 17:58:00,
2013-06-30 14:03:00,75.3,61.4,29.77,North,8,2.6,5.8,62,0.00,,,0.00,WSDL version 420,2013-06-30 18:03:00,
2013-06-30 14:08:00,75.7,62.1,29.77,ESE,120,2.7,5.4,63,0.00,,,0.00,WSDL version 420,2013-06-30 18:08:00,
2013-06-30 14:13:00,75.6,61.2,29.77,ESE,110,4.0,7.8,61,0.00,,,0.00,WSDL version 420,2013-06-30 18:13:00,
2013-06-30 14:18:00,75.7,61.8,29.77,South,173,3.7,7.8,63,0.00,,,0.00,WSDL version 420,2013-06-30 18:18:00,
2013-06-30 14:23:00,76.0,61.9,29.77,ESE,107,2.0,7.6,61,0.00,,,0.00,WSDL version 420,2013-06-30 18:23:00,
2013-06-30 14:28:00,76.1,61.4,29.77,ESE,113,3.0,7.4,62,0.00,,,0.00,WSDL version 420,2013-06-30 18:28:00,
2013-06-30 14:33:00,76.5,61.6,29.77,WNW,290,1.5,7.4,60,0.00,,,0.00,WSDL version 420,2013-06-30 18:33:00,
2013-06-30 14:39:00,76.6,62.0,29.77,ENE,66,2.2,5.6,62,0.00,,,0.00,WSDL version 420,2013-06-30 18:39:00,
2013-06-30 14:44:00,76.6,61.9,29.77,ENE,59,2.7,6.3,61,0.00,,,0.00,WSDL version 420,2013-06-30 18:44:00,
2013-06-30 14:49:00,77.0,62.2,29.77,ENE,69,4.9,8.1,58,0.00,,,0.00,WSDL version 420,2013-06-30 18:49:00,
2013-06-30 14:54:00,77.0,61.9,29.77,East,100,1.3,8.1,60,0.00,,,0.00,WSDL version 420,2013-06-30 18:54:00,
2013-06-30 14:59:00,77.6,63.0,29.77,NE,50,1.7,4.9,61,-99.99,,,-99.99,WSDL version 420,2013-06-30 18:59:00,
2013-06-30 15:04:00,77.6,63.5,29.77,East,97,2.2,3.8,62,0.00,,,0.00,WSDL version 420,2013-06-30 19:04:00,
2013-06-30 15:09:00,77.1,62.8,29.77,North,5,0.9,6.3,61,0.00,,,0.00,WSDL version 420,2013-06-30 19:09:00,
2013-06-30 15:14:00,76.5,61.8,29.77,North,5,1.8,6.3,61,0.00,,,0.00,WSDL version 420,2013-06-30 19:14:00,
2013-06-30 15:19:00,76.5,62.0,29.77,NNE,27,1.2,3.8,61,0.00,,,0.00,WSDL version 420,2013-06-30 19:19:00,
2013-06-30 15:24:00,76.2,62.1,29.77,NE,37,0.9,4.7,62,0.00,,,0.00,WSDL version 420,2013-06-30 19:24:00,
2013-06-30 15:29:00,75.9,61.2,29.77,ENE,72,0.7,4.7,62,0.00,,,0.00,WSDL version 420,2013-06-30 19:29:00,
2013-06-30 15:34:00,75.9,62.7,29.77,ENE,72,0.0,3.8,65,0.00,,,0.00,WSDL version 420,2013-06-30 19:34:00,
2013-06-30 15:39:00,76.3,62.8,29.77,ENE,72,2.2,3.4,62,0.00,,,0.00,WSDL version 420,2013-06-30 19:39:00,
2013-06-30 15:44:00,76.1,61.1,29.77,NE,50,1.3,3.4,60,0.00,,,0.00,WSDL version 420,2013-06-30 19:44:00,
2013-06-30 15:49:00,76.3,62.1,29.77,NE,50,0.6,3.6,61,0.00,,,0.00,WSDL version 420,2013-06-30 19:49:00,
2013-06-30 15:54:00,76.4,62.6,29.77,North,5,1.0,4.0,63,0.00,,,0.00,WSDL version 420,2013-06-30 19:54:00,
2013-06-30 15:59:00,76.3,63.1,29.77,North,5,1.5,4.0,63,0.00,,,0.00,WSDL version 420,2013-06-30 19:59:00,
2013-06-30 16:04:00,76.0,62.9,29.77,NW,320,2.3,3.8,64,0.00,,,0.00,WSDL version 420,2013-06-30 20:04:00,
2013-06-30 16:09:00,75.9,62.3,29.77,ENE,66,3.1,5.6,62,0.00,,,0.00,WSDL version 420,2013-06-30 20:09:00,
2013-06-30 16:14:00,76.0,62.5,29.77,ENE,72,0.2,5.6,63,0.00,,,0.00,WSDL version 420,2013-06-30 20:14:00,
2013-06-30 16:19:00,76.1,63.0,29.77,ENE,72,2.5,3.6,64,0.00,,,0.00,WSDL version 420,2013-06-30 20:19:00,
2013-06-30 16:24:00,76.0,63.9,29.77,SSW,207,0.4,3.6,68,-99.99,,,-99.99,WSDL version 420,2013-06-30 20:24:00,
2013-06-30 16:29:00,75.8,63.7,29.77,WSW,252,1.1,3.4,65,0.00,,,0.00,WSDL version 420,2013-06-30 20:29:00,
2013-06-30 16:34:00,75.7,63.6,29.77,NNW,332,2.6,4.0,66,0.00,,,0.00,WSDL version 420,2013-06-30 20:34:00,
2013-06-30 16:44:00,75.9,65.2,29.77,NNW,342,0.0,1.6,70,-99.99,,,-99.99,WSDL version 420,2013-06-30 20:44:00,
2013-06-30 16:49:00,76.1,63.9,29.77,NNW,342,0.0,1.6,66,0.00,,,0.00,WSDL version 420,2013-06-30 20:49:00,
2013-06-30 16:54:00,76.1,63.6,29.77,NNW,342,0.7,2.0,65,0.00,,,0.00,WSDL version 420,2013-06-30 20:54:00,
2013-06-30 16:59:00,76.0,64.8,29.77,NNW,342,0.0,2.0,69,0.00,,,0.00,WSDL version 420,2013-06-30 20:59:00,
2013-06-30 17:04:00,76.0,65.6,29.77,NNW,342,0.0,0.0,70,0.00,,,0.00,WSDL version 420,2013-06-30 21:04:00,
2013-06-30 17:09:00,76.0,66.4,29.77,NNW,342,0.0,0.0,73,0.00,,,0.00,WSDL version 420,2013-06-30 21:09:00,
2013-06-30 17:14:00,75.8,65.9,29.77,NNW,342,1.1,1.6,69,0.00,,,0.00,WSDL version 420,2013-06-30 21:14:00,
2013-06-30 17:19:00,75.9,64.3,29.80,North,5,2.4,2.9,68,0.00,,,0.00,WSDL version 420,2013-06-30 21:19:00,
2013-06-30 17:24:00,75.7,65.0,29.80,North,5,0.0,2.9,71,0.00,,,0.00,WSDL version 420,2013-06-30 21:24:00,
2013-06-30 17:29:00,75.5,65.9,29.80,North,5,0.0,2.5,73,0.00,,,0.00,WSDL version 420,2013-06-30 21:29:00,
2013-06-30 17:34:00,75.2,66.0,29.77,North,5,0.0,1.3,74,0.00,,,0.00,WSDL version 420,2013-06-30 21:34:00,
2013-06-30 17:39:00,74.9,66.3,29.77,North,5,0.0,0.0,75,0.00,,,0.00,WSDL version 420,2013-06-30 21:39:00,
2013-06-30 17:44:00,75.0,66.5,29.77,North,5,0.7,2.7,75,0.00,,,0.00,WSDL version 420,2013-06-30 21:44:00,
2013-06-30 17:49:00,74.8,66.7,29.80,North,5,0.0,2.7,77,0.00,,,0.00,WSDL version 420,2013-06-30 21:49:00,
2013-06-30 17:54:00,74.4,66.7,29.80,North,5,0.0,0.0,77,0.00,,,0.00,WSDL version 420,2013-06-30 21:54:00,
2013-06-30 17:59:00,74.2,66.5,29.80,North,5,0.0,0.0,77,0.00,,,0.00,WSDL version 420,2013-06-30 21:59:00,
2013-06-30 18:04:00,73.9,66.3,29.80,North,5,0.0,0.9,77,0.00,,,0.00,WSDL version 420,2013-06-30 22:04:00,
2013-06-30 18:09:00,73.4,65.9,29.80,North,5,0.0,1.1,78,-99.99,,,-99.99,WSDL version 420,2013-06-30 22:09:00,
2013-06-30 18:14:00,73.1,66.0,29.80,North,5,0.0,1.3,79,0.00,,,0.00,WSDL version 420,2013-06-30 22:14:00,
2013-06-30 18:19:00,73.0,66.1,29.80,North,5,0.0,1.3,79,0.00,,,0.00,WSDL version 420,2013-06-30 22:19:00,
2013-06-30 18:24:00,72.8,65.9,29.80,North,5,0.0,0.0,79,0.00,,,0.00,WSDL version 420,2013-06-30 22:24:00,
2013-06-30 18:29:00,72.6,65.8,29.80,South,185,0.7,2.2,79,0.00,,,0.00,WSDL version 420,2013-06-30 22:29:00,
2013-06-30 18:34:00,72.4,65.6,29.80,South,185,0.0,2.2,80,0.00,,,0.00,WSDL version 420,2013-06-30 22:34:00,
2013-06-30 18:39:00,72.1,65.3,29.80,SSW,207,0.9,1.3,80,0.00,,,0.00,WSDL version 420,2013-06-30 22:39:00,
2013-06-30 18:44:00,71.9,65.5,29.80,SSW,207,0.0,1.3,81,0.00,,,0.00,WSDL version 420,2013-06-30 22:44:00,
2013-06-30 18:49:00,71.8,65.6,29.80,SSW,207,0.2,1.6,80,-99.99,,,-99.99,WSDL version 420,2013-06-30 22:49:00,
2013-06-30 18:54:00,71.8,65.7,29.80,SSW,207,0.8,1.6,81,0.00,,,0.00,WSDL version 420,2013-06-30 22:54:00,
2013-06-30 18:59:00,71.7,65.8,29.80,SSW,207,0.0,1.3,81,0.00,,,0.00,WSDL version 420,2013-06-30 22:59:00,
2013-06-30 19:04:00,71.5,65.9,29.83,SSW,207,0.8,1.3,83,0.00,,,0.00,WSDL version 420,2013-06-30 23:04:00,
2013-06-30 19:09:00,71.4,65.7,29.83,SSW,207,1.2,2.0,82,-99.99,,,-99.99,WSDL version 420,2013-06-30 23:09:00,
2013-06-30 19:14:00,71.4,65.3,29.83,SW,215,2.0,2.5,81,0.00,,,0.00,WSDL version 420,2013-06-30 23:14:00,
2013-06-30 19:21:00,71.6,65.5,29.80,SW,230,0.6,2.9,81,0.00,,,0.00,WSDL version 420,2013-06-30 23:21:00,
2013-06-30 19:26:00,71.8,65.6,29.80,SW,230,0.0,1.6,81,0.00,,,0.00,WSDL version 420,2013-06-30 23:26:00,
2013-06-30 19:31:00,71.8,65.7,29.80,SW,230,0.0,1.6,81,0.00,,,0.00,WSDL version 420,2013-06-30 23:31:00,
2013-06-30 19:36:00,71.8,65.3,29.80,SW,230,1.3,2.7,80,0.00,,,0.00,WSDL version 420,2013-06-30 23:36:00,
2013-06-30 19:41:00,71.8,65.5,29.80,WSW,245,2.5,3.8,80,0.00,,,0.00,WSDL version 420,2013-06-30 23:41:00,
2013-06-30 19:46:00,72.0,65.7,29.80,WSW,252,1.9,3.8,81,0.00,,,0.00,WSDL version 420,2013-06-30 23:46:00,
2013-06-30 19:51:00,72.0,65.9,29.80,WSW,252,1.4,2.9,81,0.00,,,0.00,WSDL version 420,2013-06-30 23:51:00,
2013-06-30 19:56:00,71.8,65.7,29.80,WSW,244,1.6,2.9,81,0.00,,,0.00,WSDL version 420,2013-06-30 23:56:00,
2013-06-30 20:01:00,71.7,65.6,29.80,SW,230,0.3,2.5,81,0.00,,,0.00,WSDL version 420,2013-07-01 00:01:00,
2013-06-30 20:06:00,71.6,65.5,29.80,WSW,237,0.0,2.2,81,0.00,,,0.00,WSDL version 420,2013-07-01 00:06:00,
2013-06-30 20:11:00,71.4,65.5,29.80,West,263,0.0,2.9,82,0.00,,,0.00,WSDL version 420,2013-07-01 00:11:00,
2013-06-30 20:16:00,71.2,65.9,29.80,WSW,252,0.0,2.9,83,0.00,,,0.00,WSDL version 420,2013-07-01 00:16:00,
2013-06-30 20:21:00,71.1,65.8,29.80,West,275,0.0,0.0,83,0.00,,,0.00,WSDL version 420,2013-07-01 00:21:00,
2013-06-30 20:26:00,70.9,65.8,29.80,WSW,252,0.0,1.6,84,0.00,,,0.00,WSDL version 420,2013-07-01 00:26:00,
2013-06-30 20:31:00,70.7,65.8,29.80,WSW,252,0.0,1.6,84,0.00,,,0.00,WSDL version 420,2013-07-01 00:31:00,
2013-06-30 20:36:00,70.6,65.7,29.80,SW,234,0.5,1.6,84,0.00,,,0.00,WSDL version 420,2013-07-01 00:36:00,
2013-06-30 20:41:00,70.5,65.6,29.80,ENE,72,0.5,2.5,84,0.00,,,0.00,WSDL version 420,2013-07-01 00:41:00,
2013-06-30 20:46:00,70.7,65.5,29.80,WSW,243,1.2,2.7,84,0.00,,,0.00,WSDL version 420,2013-07-01 00:46:00,
2013-06-30 20:51:00,70.6,66.1,29.85,South,191,5.8,10.5,88,0.00,,,0.00,WSDL version 420,2013-07-01 00:51:00,
2013-06-30 20:56:00,70.0,66.3,29.85,SE,140,4.0,10.5,89,0.05,,,0.05,WSDL version 420,2013-07-01 00:56:00,
2013-06-30 21:01:00,69.3,66.2,29.85,North,0,0.0,7.2,91,0.13,,,0.13,WSDL version 420,2013-07-01 01:01:00,
2013-06-30 21:06:00,68.5,65.8,29.85,SSE,162,5.8,5.8,91,0.17,,,0.17,WSDL version 420,2013-07-01 01:06:00,
2013-06-30 21:11:00,68.0,65.5,29.85,SSE,162,5.8,5.8,92,0.17,,,0.17,WSDL version 420,2013-07-01 01:11:00,
2013-06-30 21:16:00,67.7,65.4,29.85,North,-999,-999.0,-999.0,92,0.17,,,0.17,WSDL version 420,2013-07-01 01:16:00,
2013-06-30 21:21:00,67.5,65.5,29.85,North,-999,-999.0,-999.0,93,0.17,,,0.17,WSDL version 420,2013-07-01 01:21:00,
2013-06-30 21:26:00,67.3,65.4,29.85,North,-999,-999.0,-999.0,94,0.17,,,0.17,WSDL version 420,2013-07-01 01:26:00,
2013-06-30 21:31:00,67.1,65.5,29.85,North,-999,-999.0,-999.0,94,0.17,,,0.17,WSDL version 420,2013-07-01 01:31:00,
2013-06-30 21:36:00,67.1,65.8,29.83,North,-999,-999.0,-999.0,96,0.17,,,0.17,WSDL version 420,2013-07-01 01:36:00,
2013-06-30 21:41:00,66.9,65.9,29.83,South,185,2.7,2.7,97,0.17,,,0.17,WSDL version 420,2013-07-01 01:41:00,
2013-06-30 21:46:00,66.9,65.9,29.83,South,185,2.7,2.7,97,0.17,,,0.17,WSDL version 420,2013-07-01 01:46:00,
2013-06-30 21:51:00,66.9,66.3,29.85,South,185,2.7,2.7,98,0.17,,,0.17,WSDL version 420,2013-07-01 01:51:00,
2013-06-30 21:56:00,66.9,66.3,29.85,North,-999,-999.0,-999.0,98,0.12,,,0.17,WSDL version 420,2013-07-01 01:56:00,
2013-06-30 22:01:00,66.9,66.3,29.85,North,-999,-999.0,-999.0,99,0.04,,,0.17,WSDL version 420,2013-07-01 02:01:00,
2013-06-30 22:06:00,66.7,66.4,29.85,North,-999,-999.0,-999.0,99,0.00,,,0.17,WSDL version 420,2013-07-01 02:06:00,
2013-06-30 22:11:00,66.7,66.4,29.85,North,-999,-999.0,-999.0,99,0.04,,,0.21,WSDL version 420,2013-07-01 02:11:00,
2013-06-30 22:16:00,66.7,66.4,29.85,North,-999,-999.0,-999.0,99,0.04,,,0.21,WSDL version 420,2013-07-01 02:16:00,
2013-06-30 22:21:00,66.6,66.2,29.85,NNE,27,0.0,0.0,99,0.04,,,0.21,WSDL version 420,2013-07-01 02:21:00,
2013-06-30 22:26:00,66.6,66.2,29.85,NNE,27,0.0,0.0,99,0.04,,,0.21,WSDL version 420,2013-07-01 02:26:00,
2013-06-30 22:31:00,66.5,66.4,29.85,NNE,27,0.0,0.0,100,0.04,,,0.21,WSDL version 420,2013-07-01 02:31:00,
2013-06-30 22:36:00,66.4,66.4,29.85,North,-999,-999.0,-999.0,100,0.04,,,0.21,WSDL version 420,2013-07-01 02:36:00,
2013-06-30 22:41:00,66.4,66.4,29.85,North,-999,-999.0,-999.0,100,0.04,,,0.21,WSDL version 420,2013-07-01 02:41:00,
2013-06-30 22:46:00,66.4,66.4,29.85,North,-999,-999.0,-999.0,100,0.04,,,0.21,WSDL version 420,2013-07-01 02:46:00,
2013-06-30 22:51:00,66.4,66.4,29.85,SSW,207,0.0,0.0,100,0.04,,,0.21,WSDL version 420,2013-07-01 02:51:00,
2013-06-30 22:56:00,66.2,66.2,29.85,SSW,207,0.0,0.0,100,0.04,,,0.21,WSDL version 420,2013-07-01 02:56:00,
2013-06-30 23:01:00,66.2,66.2,29.85,SSW,207,0.0,0.0,100,0.04,,,0.21,WSDL version 420,2013-07-01 03:01:00,
2013-06-30 23:06:00,66.2,66.2,29.88,WSW,252,2.5,3.1,100,0.04,,,0.21,WSDL version 420,2013-07-01 03:06:00,
2013-06-30 23:11:00,66.1,66.1,29.88,WSW,252,2.5,3.1,100,0.00,,,0.21,WSDL version 420,2013-07-01 03:11:00,
2013-06-30 23:16:00,66.0,66.0,29.88,WSW,252,2.5,2.7,100,0.00,,,0.21,WSDL version 420,2013-07-01 03:16:00,
2013-06-30 23:21:00,66.0,66.0,29.85,North,-999,-999.0,-999.0,100,0.00,,,0.21,WSDL version 420,2013-07-01 03:21:00,
2013-06-30 23:26:00,66.0,66.0,29.85,North,-999,-999.0,-999.0,100,0.00,,,0.21,WSDL version 420,2013-07-01 03:26:00,
2013-06-30 23:31:00,66.0,66.0,29.85,North,-999,-999.0,-999.0,100,0.00,,,0.21,WSDL version 420,2013-07-01 03:31:00,
2013-06-30 23:36:00,66.0,66.0,29.88,North,-999,-999.0,-999.0,100,0.00,,,0.21,WSDL version 420,2013-07-01 03:36:00,
2013-06-30 23:41:00,66.0,66.0,29.88,North,-999,-999.0,-999.0,100,0.00,,,0.21,WSDL version 420,2013-07-01 03:41:00,
2013-06-30 23:46:00,66.0,66.0,29.88,North,-999,-999.0,-999.0,100,0.00,,,0.21,WSDL version 420,2013-07-01 03:46:00,
2013-06-30 23:51:00,66.0,66.0,29.88,North,-999,-999.0,-999.0,100,0.00,,,0.21,WSDL version 420,2013-07-01 03:51:00,
2013-06-30 23:56:00,66.0,66.0,29.88,North,-999,-999.0,-999.0,100,-99.99,,,-99.99,WSDL version 420,2013-07-01 03:56:00,